sensor_id;sensor_type;location;lat;lon;timestamp;P1;durP1;ratioP1;P2;durP2;ratioP2
32319;SDS011;19080;51.750;5.888;2022-10-31T00:02:24;8.32;;;6.88;;
32319;SDS011;19080;51.750;5.888;2022-10-31T00:04:50;8.25;;;6.88;;
32319;SDS011;19080;51.750;5.888;2022-10-31T00:07:17;9.32;;;7.75;;
32319;SDS011;19080;51.750;5.888;2022-10-31T00:09:43;12.55;;;7.03;;
32319;SDS011;19080;51.750;5.888;2022-10-31T00:12:09;17.23;;;7.93;;
32319;SDS011;19080;51.750;5.888;2022-10-31T00:14:36;10.70;;;7.15;;
32319;SDS011;19080;51.750;5.888;2022-10-31T00:17:02;13.68;;;7.75;;
32319;SDS011;19080;51.750;5.888;2022-10-31T00:19:29;9.85;;;6.90;;
32319;SDS011;19080;51.750;5.888;2022-10-31T00:21:55;15.02;;;6.88;;
32319;SDS011;19080;51.750;5.888;2022-10-31T00:24:21;8.98;;;7.35;;
32319;SDS011;19080;51.750;5.888;2022-10-31T00:26:48;12.63;;;8.02;;
32319;SDS011;19080;51.750;5.888;2022-10-31T00:29:14;11.55;;;8.07;;
32319;SDS011;19080;51.750;5.888;2022-10-31T00:31:40;13.30;;;8.00;;
32319;SDS011;19080;51.750;5.888;2022-10-31T00:34:07;11.13;;;7.88;;
32319;SDS011;19080;51.750;5.888;2022-10-31T00:36:34;12.75;;;8.00;;
32319;SDS011;19080;51.750;5.888;2022-10-31T00:39:01;11.35;;;8.02;;
32319;SDS011;19080;51.750;5.888;2022-10-31T00:41:27;15.20;;;10.35;;
32319;SDS011;19080;51.750;5.888;2022-10-31T00:43:56;19.42;;;10.77;;
32319;SDS011;19080;51.750;5.888;2022-10-31T00:46:22;13.60;;;9.82;;
32319;SDS011;19080;51.750;5.888;2022-10-31T00:48:49;15.40;;;9.90;;
32319;SDS011;19080;51.750;5.888;2022-10-31T00:51:16;14.95;;;10.55;;
32319;SDS011;19080;51.750;5.888;2022-10-31T00:53:42;14.93;;;8.95;;
32319;SDS011;19080;51.750;5.888;2022-10-31T00:56:09;17.73;;;9.85;;
32319;SDS011;19080;51.750;5.888;2022-10-31T00:58:35;14.75;;;9.55;;
32319;SDS011;19080;51.750;5.888;2022-10-31T01:01:02;12.93;;;9.65;;
32319;SDS011;19080;51.750;5.888;2022-10-31T01:03:30;15.70;;;9.80;;
32319;SDS011;19080;51.750;5.888;2022-10-31T01:08:23;13.75;;;10.48;;
32319;SDS011;19080;51.750;5.888;2022-10-31T01:13:32;17.50;;;10.95;;
32319;SDS011;19080;51.750;5.888;2022-10-31T01:16:00;14.82;;;10.80;;
32319;SDS011;19080;51.750;5.888;2022-10-31T01:18:27;14.88;;;10.02;;
32319;SDS011;19080;51.750;5.888;2022-10-31T01:20:57;16.02;;;10.68;;
32319;SDS011;19080;51.750;5.888;2022-10-31T01:23:24;17.25;;;12.20;;
32319;SDS011;19080;51.750;5.888;2022-10-31T01:25:58;12.93;;;10.25;;
32319;SDS011;19080;51.750;5.888;2022-10-31T01:28:24;15.95;;;10.57;;
32319;SDS011;19080;51.750;5.888;2022-10-31T01:30:59;13.95;;;10.75;;
32319;SDS011;19080;51.750;5.888;2022-10-31T01:33:26;15.80;;;10.38;;
32319;SDS011;19080;51.750;5.888;2022-10-31T01:35:53;12.00;;;10.02;;
32319;SDS011;19080;51.750;5.888;2022-10-31T01:38:19;17.98;;;10.68;;
32319;SDS011;19080;51.750;5.888;2022-10-31T01:40:47;17.30;;;11.65;;
32319;SDS011;19080;51.750;5.888;2022-10-31T01:43:13;15.52;;;11.70;;
32319;SDS011;19080;51.750;5.888;2022-10-31T01:45:41;17.75;;;11.90;;
32319;SDS011;19080;51.750;5.888;2022-10-31T01:48:11;17.67;;;12.32;;
32319;SDS011;19080;51.750;5.888;2022-10-31T01:50:39;19.77;;;13.65;;
32319;SDS011;19080;51.750;5.888;2022-10-31T01:53:07;17.33;;;13.73;;
32319;SDS011;19080;51.750;5.888;2022-10-31T01:55:34;18.58;;;14.02;;
32319;SDS011;19080;51.750;5.888;2022-10-31T01:58:04;17.60;;;14.20;;
32319;SDS011;19080;51.750;5.888;2022-10-31T02:00:32;24.38;;;16.30;;
32319;SDS011;19080;51.750;5.888;2022-10-31T02:02:58;19.42;;;14.05;;
32319;SDS011;19080;51.750;5.888;2022-10-31T02:05:27;28.20;;;17.95;;
32319;SDS011;19080;51.750;5.888;2022-10-31T02:08:29;20.95;;;15.18;;
32319;SDS011;19080;51.750;5.888;2022-10-31T02:10:49;17.65;;;13.27;;
32319;SDS011;19080;51.750;5.888;2022-10-31T02:13:16;16.73;;;13.20;;
32319;SDS011;19080;51.750;5.888;2022-10-31T02:15:47;18.45;;;15.15;;
32319;SDS011;19080;51.750;5.888;2022-10-31T02:18:15;17.52;;;13.68;;
32319;SDS011;19080;51.750;5.888;2022-10-31T02:20:46;19.80;;;13.93;;
32319;SDS011;19080;51.750;5.888;2022-10-31T02:26:14;13.60;;;10.23;;
32319;SDS011;19080;51.750;5.888;2022-10-31T02:31:32;22.98;;;15.43;;
32319;SDS011;19080;51.750;5.888;2022-10-31T02:34:06;19.50;;;14.82;;
32319;SDS011;19080;51.750;5.888;2022-10-31T02:42:07;22.38;;;15.20;;
32319;SDS011;19080;51.750;5.888;2022-10-31T02:47:07;26.42;;;17.02;;
32319;SDS011;19080;51.750;5.888;2022-10-31T02:49:38;21.63;;;16.33;;
32319;SDS011;19080;51.750;5.888;2022-10-31T02:52:30;23.27;;;17.35;;
32319;SDS011;19080;51.750;5.888;2022-10-31T02:55:41;20.95;;;16.63;;
32319;SDS011;19080;51.750;5.888;2022-10-31T02:58:04;24.95;;;16.98;;
32319;SDS011;19080;51.750;5.888;2022-10-31T03:00:33;24.45;;;17.30;;
32319;SDS011;19080;51.750;5.888;2022-10-31T03:10:42;22.02;;;17.35;;
32319;SDS011;19080;51.750;5.888;2022-10-31T03:13:15;24.75;;;15.95;;
32319;SDS011;19080;51.750;5.888;2022-10-31T03:15:51;22.42;;;16.77;;
32319;SDS011;19080;51.750;5.888;2022-10-31T03:18:27;24.60;;;17.30;;
32319;SDS011;19080;51.750;5.888;2022-10-31T03:21:01;24.70;;;18.35;;
32319;SDS011;19080;51.750;5.888;2022-10-31T03:23:34;23.77;;;17.00;;
32319;SDS011;19080;51.750;5.888;2022-10-31T03:26:02;21.42;;;16.33;;
32319;SDS011;19080;51.750;5.888;2022-10-31T03:28:33;23.23;;;16.75;;
32319;SDS011;19080;51.750;5.888;2022-10-31T03:31:03;27.67;;;18.10;;
32319;SDS011;19080;51.750;5.888;2022-10-31T03:33:35;23.92;;;18.60;;
32319;SDS011;19080;51.750;5.888;2022-10-31T03:36:03;26.27;;;18.85;;
32319;SDS011;19080;51.750;5.888;2022-10-31T03:38:32;29.52;;;18.67;;
32319;SDS011;19080;51.750;5.888;2022-10-31T03:41:00;24.75;;;19.25;;
32319;SDS011;19080;51.750;5.888;2022-10-31T03:43:31;25.88;;;19.15;;
32319;SDS011;19080;51.750;5.888;2022-10-31T03:45:58;29.58;;;19.95;;
32319;SDS011;19080;51.750;5.888;2022-10-31T03:48:26;27.77;;;19.38;;
32319;SDS011;19080;51.750;5.888;2022-10-31T03:50:58;25.63;;;17.85;;
32319;SDS011;19080;51.750;5.888;2022-10-31T03:55:59;22.25;;;16.20;;
32319;SDS011;19080;51.750;5.888;2022-10-31T03:58:28;25.05;;;16.95;;
32319;SDS011;19080;51.750;5.888;2022-10-31T04:00:56;22.58;;;16.73;;
32319;SDS011;19080;51.750;5.888;2022-10-31T04:03:27;21.63;;;16.83;;
32319;SDS011;19080;51.750;5.888;2022-10-31T04:05:57;23.55;;;17.40;;
32319;SDS011;19080;51.750;5.888;2022-10-31T04:08:26;22.13;;;18.17;;
32319;SDS011;19080;51.750;5.888;2022-10-31T04:10:54;22.85;;;18.13;;
32319;SDS011;19080;51.750;5.888;2022-10-31T04:13:23;25.45;;;18.50;;
32319;SDS011;19080;51.750;5.888;2022-10-31T04:15:58;24.70;;;17.38;;
32319;SDS011;19080;51.750;5.888;2022-10-31T04:18:25;25.80;;;19.73;;
32319;SDS011;19080;51.750;5.888;2022-10-31T04:20:59;20.70;;;17.73;;
32319;SDS011;19080;51.750;5.888;2022-10-31T04:23:26;22.73;;;17.15;;
32319;SDS011;19080;51.750;5.888;2022-10-31T04:25:53;22.90;;;16.67;;
32319;SDS011;19080;51.750;5.888;2022-10-31T04:28:19;22.98;;;16.23;;
32319;SDS011;19080;51.750;5.888;2022-10-31T04:30:46;22.83;;;16.90;;
32319;SDS011;19080;51.750;5.888;2022-10-31T04:33:12;22.35;;;17.40;;
32319;SDS011;19080;51.750;5.888;2022-10-31T04:35:40;23.00;;;15.80;;
32319;SDS011;19080;51.750;5.888;2022-10-31T04:38:09;24.45;;;17.52;;
32319;SDS011;19080;51.750;5.888;2022-10-31T04:40:37;21.40;;;16.25;;
32319;SDS011;19080;51.750;5.888;2022-10-31T04:43:26;22.23;;;16.63;;
32319;SDS011;19080;51.750;5.888;2022-10-31T04:45:52;25.98;;;19.02;;
32319;SDS011;19080;51.750;5.888;2022-10-31T04:48:19;20.90;;;15.32;;
32319;SDS011;19080;51.750;5.888;2022-10-31T04:50:45;22.67;;;17.42;;
32319;SDS011;19080;51.750;5.888;2022-10-31T04:53:13;27.52;;;17.33;;
32319;SDS011;19080;51.750;5.888;2022-10-31T04:56:00;22.83;;;18.02;;
32319;SDS011;19080;51.750;5.888;2022-10-31T04:58:35;25.08;;;16.25;;
32319;SDS011;19080;51.750;5.888;2022-10-31T05:01:05;22.77;;;17.00;;
32319;SDS011;19080;51.750;5.888;2022-10-31T05:03:32;25.98;;;17.45;;
32319;SDS011;19080;51.750;5.888;2022-10-31T05:05:58;24.83;;;17.15;;
32319;SDS011;19080;51.750;5.888;2022-10-31T05:08:26;23.60;;;17.08;;
32319;SDS011;19080;51.750;5.888;2022-10-31T05:10:53;23.00;;;16.98;;
32319;SDS011;19080;51.750;5.888;2022-10-31T05:13:20;24.80;;;17.13;;
32319;SDS011;19080;51.750;5.888;2022-10-31T05:16:10;23.05;;;16.70;;
32319;SDS011;19080;51.750;5.888;2022-10-31T05:18:55;21.98;;;16.10;;
32319;SDS011;19080;51.750;5.888;2022-10-31T05:21:27;20.42;;;16.40;;
32319;SDS011;19080;51.750;5.888;2022-10-31T05:23:58;21.92;;;16.05;;
32319;SDS011;19080;51.750;5.888;2022-10-31T05:26:24;20.77;;;16.02;;
32319;SDS011;19080;51.750;5.888;2022-10-31T05:28:53;20.65;;;16.80;;
32319;SDS011;19080;51.750;5.888;2022-10-31T05:31:20;25.42;;;17.77;;
32319;SDS011;19080;51.750;5.888;2022-10-31T05:33:48;20.70;;;16.45;;
32319;SDS011;19080;51.750;5.888;2022-10-31T05:36:34;25.55;;;17.58;;
32319;SDS011;19080;51.750;5.888;2022-10-31T05:39:07;21.90;;;17.08;;
32319;SDS011;19080;51.750;5.888;2022-10-31T05:41:39;20.85;;;16.80;;
32319;SDS011;19080;51.750;5.888;2022-10-31T05:44:12;21.88;;;17.17;;
32319;SDS011;19080;51.750;5.888;2022-10-31T05:47:08;22.60;;;16.25;;
32319;SDS011;19080;51.750;5.888;2022-10-31T05:49:53;19.92;;;16.10;;
32319;SDS011;19080;51.750;5.888;2022-10-31T05:52:38;21.48;;;15.77;;
32319;SDS011;19080;51.750;5.888;2022-10-31T05:55:19;22.67;;;15.77;;
32319;SDS011;19080;51.750;5.888;2022-10-31T05:58:08;26.58;;;18.42;;
32319;SDS011;19080;51.750;5.888;2022-10-31T06:00:36;21.45;;;15.25;;
32319;SDS011;19080;51.750;5.888;2022-10-31T06:03:07;22.98;;;17.35;;
32319;SDS011;19080;51.750;5.888;2022-10-31T06:05:46;27.02;;;18.25;;
32319;SDS011;19080;51.750;5.888;2022-10-31T06:08:19;20.08;;;15.13;;
32319;SDS011;19080;51.750;5.888;2022-10-31T06:10:47;21.10;;;16.25;;
32319;SDS011;19080;51.750;5.888;2022-10-31T06:13:19;22.00;;;16.77;;
32319;SDS011;19080;51.750;5.888;2022-10-31T06:16:02;24.30;;;18.92;;
32319;SDS011;19080;51.750;5.888;2022-10-31T06:18:34;22.52;;;16.40;;
32319;SDS011;19080;51.750;5.888;2022-10-31T06:21:00;24.73;;;17.60;;
32319;SDS011;19080;51.750;5.888;2022-10-31T06:23:27;27.90;;;18.80;;
32319;SDS011;19080;51.750;5.888;2022-10-31T06:26:14;28.05;;;18.88;;
32319;SDS011;19080;51.750;5.888;2022-10-31T06:28:40;29.13;;;20.17;;
32319;SDS011;19080;51.750;5.888;2022-10-31T06:31:22;28.33;;;19.42;;
32319;SDS011;19080;51.750;5.888;2022-10-31T06:33:49;22.67;;;17.42;;
32319;SDS011;19080;51.750;5.888;2022-10-31T06:36:15;26.08;;;17.83;;
32319;SDS011;19080;51.750;5.888;2022-10-31T06:38:42;27.17;;;19.52;;
32319;SDS011;19080;51.750;5.888;2022-10-31T06:41:09;26.13;;;19.10;;
32319;SDS011;19080;51.750;5.888;2022-10-31T06:43:45;24.83;;;17.75;;
32319;SDS011;19080;51.750;5.888;2022-10-31T06:46:25;23.75;;;18.40;;
32319;SDS011;19080;51.750;5.888;2022-10-31T06:49:04;22.70;;;17.60;;
32319;SDS011;19080;51.750;5.888;2022-10-31T06:51:38;28.88;;;19.48;;
32319;SDS011;19080;51.750;5.888;2022-10-31T06:54:04;27.10;;;19.23;;
32319;SDS011;19080;51.750;5.888;2022-10-31T06:56:31;27.42;;;19.42;;
32319;SDS011;19080;51.750;5.888;2022-10-31T06:58:58;23.27;;;18.52;;
32319;SDS011;19080;51.750;5.888;2022-10-31T07:01:44;24.80;;;18.27;;
32319;SDS011;19080;51.750;5.888;2022-10-31T07:04:11;26.80;;;19.17;;
32319;SDS011;19080;51.750;5.888;2022-10-31T07:06:38;28.45;;;19.23;;
32319;SDS011;19080;51.750;5.888;2022-10-31T07:09:05;24.75;;;18.92;;
32319;SDS011;19080;51.750;5.888;2022-10-31T07:11:31;26.95;;;20.55;;
32319;SDS011;19080;51.750;5.888;2022-10-31T07:13:58;24.55;;;19.08;;
32319;SDS011;19080;51.750;5.888;2022-10-31T07:16:26;25.33;;;18.92;;
32319;SDS011;19080;51.750;5.888;2022-10-31T07:18:52;27.75;;;19.67;;
32319;SDS011;19080;51.750;5.888;2022-10-31T07:21:20;25.45;;;19.13;;
32319;SDS011;19080;51.750;5.888;2022-10-31T07:23:47;25.98;;;18.95;;
32319;SDS011;19080;51.750;5.888;2022-10-31T07:26:46;28.85;;;18.88;;
32319;SDS011;19080;51.750;5.888;2022-10-31T07:29:14;23.88;;;18.60;;
32319;SDS011;19080;51.750;5.888;2022-10-31T07:31:40;28.40;;;20.02;;
32319;SDS011;19080;51.750;5.888;2022-10-31T07:34:15;28.23;;;18.20;;
32319;SDS011;19080;51.750;5.888;2022-10-31T07:36:59;26.60;;;18.40;;
32319;SDS011;19080;51.750;5.888;2022-10-31T07:39:26;25.23;;;18.13;;
32319;SDS011;19080;51.750;5.888;2022-10-31T07:41:52;26.13;;;17.52;;
32319;SDS011;19080;51.750;5.888;2022-10-31T07:44:19;24.98;;;17.45;;
32319;SDS011;19080;51.750;5.888;2022-10-31T07:47:14;28.17;;;20.23;;
32319;SDS011;19080;51.750;5.888;2022-10-31T07:49:59;31.20;;;21.33;;
32319;SDS011;19080;51.750;5.888;2022-10-31T07:53:04;28.25;;;21.23;;
32319;SDS011;19080;51.750;5.888;2022-10-31T07:55:40;32.03;;;21.65;;
32319;SDS011;19080;51.750;5.888;2022-10-31T07:58:13;29.95;;;20.52;;
32319;SDS011;19080;51.750;5.888;2022-10-31T08:00:41;27.88;;;20.00;;
32319;SDS011;19080;51.750;5.888;2022-10-31T08:03:10;24.48;;;19.35;;
32319;SDS011;19080;51.750;5.888;2022-10-31T08:05:57;29.02;;;20.58;;
32319;SDS011;19080;51.750;5.888;2022-10-31T08:08:26;23.35;;;19.35;;
32319;SDS011;19080;51.750;5.888;2022-10-31T08:10:57;25.23;;;19.55;;
32319;SDS011;19080;51.750;5.888;2022-10-31T08:13:24;24.95;;;19.92;;
32319;SDS011;19080;51.750;5.888;2022-10-31T08:15:50;26.42;;;19.30;;
32319;SDS011;19080;51.750;5.888;2022-10-31T08:18:22;22.30;;;18.63;;
32319;SDS011;19080;51.750;5.888;2022-10-31T08:20:50;22.48;;;17.73;;
32319;SDS011;19080;51.750;5.888;2022-10-31T08:23:17;26.85;;;19.00;;
32319;SDS011;19080;51.750;5.888;2022-10-31T08:25:43;22.05;;;18.50;;
32319;SDS011;19080;51.750;5.888;2022-10-31T08:28:13;22.55;;;17.55;;
32319;SDS011;19080;51.750;5.888;2022-10-31T08:30:42;24.90;;;19.40;;
32319;SDS011;19080;51.750;5.888;2022-10-31T08:33:27;23.52;;;17.65;;
32319;SDS011;19080;51.750;5.888;2022-10-31T08:36:12;24.73;;;18.75;;
32319;SDS011;19080;51.750;5.888;2022-10-31T08:38:47;23.80;;;16.80;;
32319;SDS011;19080;51.750;5.888;2022-10-31T08:41:15;20.55;;;16.50;;
32319;SDS011;19080;51.750;5.888;2022-10-31T08:43:42;20.50;;;16.48;;
32319;SDS011;19080;51.750;5.888;2022-10-31T08:46:08;21.75;;;16.23;;
32319;SDS011;19080;51.750;5.888;2022-10-31T08:48:35;22.88;;;16.42;;
32319;SDS011;19080;51.750;5.888;2022-10-31T08:51:03;24.40;;;16.40;;
32319;SDS011;19080;51.750;5.888;2022-10-31T08:53:30;21.73;;;16.85;;
32319;SDS011;19080;51.750;5.888;2022-10-31T08:58:49;20.63;;;16.35;;
32319;SDS011;19080;51.750;5.888;2022-10-31T09:01:22;22.42;;;16.33;;
32319;SDS011;19080;51.750;5.888;2022-10-31T09:03:49;27.52;;;17.23;;
32319;SDS011;19080;51.750;5.888;2022-10-31T09:06:15;25.95;;;17.25;;
32319;SDS011;19080;51.750;5.888;2022-10-31T09:08:42;22.33;;;16.52;;
32319;SDS011;19080;51.750;5.888;2022-10-31T09:11:09;21.58;;;16.40;;
32319;SDS011;19080;51.750;5.888;2022-10-31T09:13:54;23.50;;;17.38;;
32319;SDS011;19080;51.750;5.888;2022-10-31T09:16:39;21.17;;;15.88;;
32319;SDS011;19080;51.750;5.888;2022-10-31T09:19:12;23.13;;;16.10;;
32319;SDS011;19080;51.750;5.888;2022-10-31T09:21:39;23.40;;;17.85;;
32319;SDS011;19080;51.750;5.888;2022-10-31T09:24:05;27.17;;;18.95;;
32319;SDS011;19080;51.750;5.888;2022-10-31T09:26:33;31.20;;;19.55;;
32319;SDS011;19080;51.750;5.888;2022-10-31T09:29:14;28.30;;;18.98;;
32319;SDS011;19080;51.750;5.888;2022-10-31T09:31:42;30.30;;;19.48;;
32319;SDS011;19080;51.750;5.888;2022-10-31T09:34:27;24.85;;;18.65;;
32319;SDS011;19080;51.750;5.888;2022-10-31T09:37:05;29.73;;;20.00;;
32319;SDS011;19080;51.750;5.888;2022-10-31T09:39:34;30.98;;;19.92;;
32319;SDS011;19080;51.750;5.888;2022-10-31T09:42:17;27.15;;;19.30;;
32319;SDS011;19080;51.750;5.888;2022-10-31T09:45:11;23.45;;;18.75;;
32319;SDS011;19080;51.750;5.888;2022-10-31T09:50:31;26.35;;;19.98;;
32319;SDS011;19080;51.750;5.888;2022-10-31T09:53:21;27.67;;;19.50;;
32319;SDS011;19080;51.750;5.888;2022-10-31T09:55:49;24.73;;;18.38;;
32319;SDS011;19080;51.750;5.888;2022-10-31T09:58:18;26.75;;;19.88;;
32319;SDS011;19080;51.750;5.888;2022-10-31T10:00:46;29.98;;;18.67;;
32319;SDS011;19080;51.750;5.888;2022-10-31T10:05:51;26.63;;;19.73;;
32319;SDS011;19080;51.750;5.888;2022-10-31T10:08:30;28.48;;;19.92;;
32319;SDS011;19080;51.750;5.888;2022-10-31T10:13:30;30.17;;;20.20;;
32319;SDS011;19080;51.750;5.888;2022-10-31T10:18:32;27.30;;;20.92;;
32319;SDS011;19080;51.750;5.888;2022-10-31T10:26:20;38.03;;;21.75;;
32319;SDS011;19080;51.750;5.888;2022-10-31T10:28:54;26.08;;;20.10;;
32319;SDS011;19080;51.750;5.888;2022-10-31T10:31:23;33.60;;;21.70;;
32319;SDS011;19080;51.750;5.888;2022-10-31T10:36:21;26.25;;;19.50;;
32319;SDS011;19080;51.750;5.888;2022-10-31T10:41:17;32.05;;;21.52;;
32319;SDS011;19080;51.750;5.888;2022-10-31T10:43:43;31.73;;;21.45;;
32319;SDS011;19080;51.750;5.888;2022-10-31T10:51:31;31.30;;;20.08;;
32319;SDS011;19080;51.750;5.888;2022-10-31T10:54:24;34.28;;;20.58;;
32319;SDS011;19080;51.750;5.888;2022-10-31T10:59:28;33.55;;;20.35;;
32319;SDS011;19080;51.750;5.888;2022-10-31T11:01:56;36.35;;;23.60;;
32319;SDS011;19080;51.750;5.888;2022-10-31T11:04:25;29.40;;;19.92;;
32319;SDS011;19080;51.750;5.888;2022-10-31T11:06:57;30.25;;;21.55;;
32319;SDS011;19080;51.750;5.888;2022-10-31T11:09:23;35.10;;;22.60;;
32319;SDS011;19080;51.750;5.888;2022-10-31T11:11:49;37.83;;;22.17;;
32319;SDS011;19080;51.750;5.888;2022-10-31T11:14:16;37.45;;;21.55;;
32319;SDS011;19080;51.750;5.888;2022-10-31T11:16:49;31.13;;;21.38;;
32319;SDS011;19080;51.750;5.888;2022-10-31T11:19:23;34.25;;;21.02;;
32319;SDS011;19080;51.750;5.888;2022-10-31T11:21:52;31.60;;;20.05;;
32319;SDS011;19080;51.750;5.888;2022-10-31T11:24:23;27.20;;;18.67;;
32319;SDS011;19080;51.750;5.888;2022-10-31T11:29:22;29.77;;;18.85;;
32319;SDS011;19080;51.750;5.888;2022-10-31T11:31:55;32.35;;;20.30;;
32319;SDS011;19080;51.750;5.888;2022-10-31T11:34:32;27.80;;;19.05;;
32319;SDS011;19080;51.750;5.888;2022-10-31T11:37:43;28.25;;;19.02;;
32319;SDS011;19080;51.750;5.888;2022-10-31T11:39:51;31.80;;;19.45;;
32319;SDS011;19080;51.750;5.888;2022-10-31T11:42:25;33.47;;;18.58;;
32319;SDS011;19080;51.750;5.888;2022-10-31T11:44:53;32.20;;;18.92;;
32319;SDS011;19080;51.750;5.888;2022-10-31T11:47:27;27.10;;;18.35;;
32319;SDS011;19080;51.750;5.888;2022-10-31T11:49:54;33.15;;;19.25;;
32319;SDS011;19080;51.750;5.888;2022-10-31T11:52:25;32.20;;;19.13;;
32319;SDS011;19080;51.750;5.888;2022-10-31T11:54:54;32.53;;;19.98;;
32319;SDS011;19080;51.750;5.888;2022-10-31T12:00:19;33.15;;;19.55;;
32319;SDS011;19080;51.750;5.888;2022-10-31T12:02:47;29.83;;;19.05;;
32319;SDS011;19080;51.750;5.888;2022-10-31T12:05:24;28.30;;;19.10;;
32319;SDS011;19080;51.750;5.888;2022-10-31T12:07:51;31.45;;;18.70;;
32319;SDS011;19080;51.750;5.888;2022-10-31T12:10:19;25.42;;;16.83;;
32319;SDS011;19080;51.750;5.888;2022-10-31T12:12:50;36.40;;;18.40;;
32319;SDS011;19080;51.750;5.888;2022-10-31T12:15:35;32.88;;;19.70;;
32319;SDS011;19080;51.750;5.888;2022-10-31T12:28:30;29.90;;;17.33;;
32319;SDS011;19080;51.750;5.888;2022-10-31T12:31:09;32.30;;;17.50;;
32319;SDS011;19080;51.750;5.888;2022-10-31T12:33:45;29.88;;;17.20;;
32319;SDS011;19080;51.750;5.888;2022-10-31T12:38:52;26.58;;;14.32;;
32319;SDS011;19080;51.750;5.888;2022-10-31T12:41:32;25.60;;;15.55;;
32319;SDS011;19080;51.750;5.888;2022-10-31T12:44:05;26.85;;;16.65;;
32319;SDS011;19080;51.750;5.888;2022-10-31T12:46:50;22.65;;;15.52;;
32319;SDS011;19080;51.750;5.888;2022-10-31T12:49:27;27.90;;;16.13;;
32319;SDS011;19080;51.750;5.888;2022-10-31T12:52:04;25.83;;;15.80;;
32319;SDS011;19080;51.750;5.888;2022-10-31T12:54:55;23.35;;;16.23;;
32319;SDS011;19080;51.750;5.888;2022-10-31T12:57:29;25.42;;;16.35;;
32319;SDS011;19080;51.750;5.888;2022-10-31T13:07:16;28.67;;;15.85;;
32319;SDS011;19080;51.750;5.888;2022-10-31T13:09:47;22.63;;;14.90;;
32319;SDS011;19080;51.750;5.888;2022-10-31T13:12:17;23.08;;;15.20;;
32319;SDS011;19080;51.750;5.888;2022-10-31T13:14:51;23.63;;;14.43;;
32319;SDS011;19080;51.750;5.888;2022-10-31T13:19:47;22.65;;;13.07;;
32319;SDS011;19080;51.750;5.888;2022-10-31T13:22:16;23.35;;;14.55;;
32319;SDS011;19080;51.750;5.888;2022-10-31T13:24:53;26.55;;;14.82;;
32319;SDS011;19080;51.750;5.888;2022-10-31T13:27:26;27.02;;;15.80;;
32319;SDS011;19080;51.750;5.888;2022-10-31T13:30:04;28.83;;;15.88;;
32319;SDS011;19080;51.750;5.888;2022-10-31T13:32:40;25.23;;;14.70;;
32319;SDS011;19080;51.750;5.888;2022-10-31T13:35:11;27.00;;;15.20;;
32319;SDS011;19080;51.750;5.888;2022-10-31T13:37:44;32.05;;;15.15;;
32319;SDS011;19080;51.750;5.888;2022-10-31T13:40:38;27.80;;;15.45;;
32319;SDS011;19080;51.750;5.888;2022-10-31T13:43:10;27.23;;;15.90;;
32319;SDS011;19080;51.750;5.888;2022-10-31T13:45:47;29.20;;;16.17;;
32319;SDS011;19080;51.750;5.888;2022-10-31T13:50:40;28.40;;;16.70;;
32319;SDS011;19080;51.750;5.888;2022-10-31T13:53:11;29.77;;;17.02;;
32319;SDS011;19080;51.750;5.888;2022-10-31T13:55:48;28.65;;;15.95;;
32319;SDS011;19080;51.750;5.888;2022-10-31T13:58:22;29.88;;;16.98;;
32319;SDS011;19080;51.750;5.888;2022-10-31T14:03:25;31.17;;;18.35;;
32319;SDS011;19080;51.750;5.888;2022-10-31T14:06:11;32.10;;;17.58;;
32319;SDS011;19080;51.750;5.888;2022-10-31T14:08:47;33.28;;;18.23;;
32319;SDS011;19080;51.750;5.888;2022-10-31T14:11:23;28.73;;;18.17;;
32319;SDS011;19080;51.750;5.888;2022-10-31T14:13:49;28.63;;;17.30;;
32319;SDS011;19080;51.750;5.888;2022-10-31T14:18:50;31.13;;;17.15;;
32319;SDS011;19080;51.750;5.888;2022-10-31T14:23:50;29.35;;;17.88;;
32319;SDS011;19080;51.750;5.888;2022-10-31T14:28:54;33.20;;;20.08;;
32319;SDS011;19080;51.750;5.888;2022-10-31T14:31:37;30.45;;;18.23;;
32319;SDS011;19080;51.750;5.888;2022-10-31T14:39:24;32.33;;;19.35;;
32319;SDS011;19080;51.750;5.888;2022-10-31T14:50:17;31.27;;;18.75;;
32319;SDS011;19080;51.750;5.888;2022-10-31T14:52:47;27.52;;;18.67;;
32319;SDS011;19080;51.750;5.888;2022-10-31T14:55:14;31.70;;;20.33;;
32319;SDS011;19080;51.750;5.888;2022-10-31T14:57:44;38.67;;;21.05;;
32319;SDS011;19080;51.750;5.888;2022-10-31T15:00:15;36.75;;;20.52;;
32319;SDS011;19080;51.750;5.888;2022-10-31T15:05:28;28.23;;;19.52;;
32319;SDS011;19080;51.750;5.888;2022-10-31T15:07:56;31.65;;;19.23;;
32319;SDS011;19080;51.750;5.888;2022-10-31T15:10:24;33.80;;;19.40;;
32319;SDS011;19080;51.750;5.888;2022-10-31T15:12:51;32.85;;;18.80;;
32319;SDS011;19080;51.750;5.888;2022-10-31T15:15:22;31.98;;;19.95;;
32319;SDS011;19080;51.750;5.888;2022-10-31T15:17:51;32.45;;;18.83;;
32319;SDS011;19080;51.750;5.888;2022-10-31T15:20:28;36.05;;;20.10;;
32319;SDS011;19080;51.750;5.888;2022-10-31T15:22:56;35.95;;;19.95;;
32319;SDS011;19080;51.750;5.888;2022-10-31T15:25:24;29.33;;;19.55;;
32319;SDS011;19080;51.750;5.888;2022-10-31T15:27:51;30.83;;;19.85;;
32319;SDS011;19080;51.750;5.888;2022-10-31T15:30:19;36.45;;;19.65;;
32319;SDS011;19080;51.750;5.888;2022-10-31T15:32:46;33.10;;;19.58;;
32319;SDS011;19080;51.750;5.888;2022-10-31T15:35:28;33.10;;;19.73;;
32319;SDS011;19080;51.750;5.888;2022-10-31T15:37:54;28.70;;;19.90;;
32319;SDS011;19080;51.750;5.888;2022-10-31T15:40:24;34.20;;;20.50;;
32319;SDS011;19080;51.750;5.888;2022-10-31T15:42:53;38.08;;;20.50;;
32319;SDS011;19080;51.750;5.888;2022-10-31T15:45:22;34.60;;;20.67;;
32319;SDS011;19080;51.750;5.888;2022-10-31T15:48:00;37.95;;;21.60;;
32319;SDS011;19080;51.750;5.888;2022-10-31T15:50:31;34.85;;;20.85;;
32319;SDS011;19080;51.750;5.888;2022-10-31T15:52:58;37.75;;;21.63;;
32319;SDS011;19080;51.750;5.888;2022-10-31T15:55:27;36.00;;;20.33;;
32319;SDS011;19080;51.750;5.888;2022-10-31T15:57:58;43.15;;;22.45;;
32319;SDS011;19080;51.750;5.888;2022-10-31T16:00:29;37.60;;;21.73;;
32319;SDS011;19080;51.750;5.888;2022-10-31T16:05:35;33.85;;;21.23;;
32319;SDS011;19080;51.750;5.888;2022-10-31T16:08:02;32.47;;;20.48;;
32319;SDS011;19080;51.750;5.888;2022-10-31T16:10:32;34.92;;;22.80;;
32319;SDS011;19080;51.750;5.888;2022-10-31T16:12:58;35.72;;;20.60;;
32319;SDS011;19080;51.750;5.888;2022-10-31T16:15:27;33.97;;;20.77;;
32319;SDS011;19080;51.750;5.888;2022-10-31T16:17:53;36.88;;;20.92;;
32319;SDS011;19080;51.750;5.888;2022-10-31T16:20:27;36.28;;;20.92;;
32319;SDS011;19080;51.750;5.888;2022-10-31T16:22:55;35.47;;;19.67;;
32319;SDS011;19080;51.750;5.888;2022-10-31T16:25:27;36.00;;;19.58;;
32319;SDS011;19080;51.750;5.888;2022-10-31T16:27:56;36.53;;;20.15;;
32319;SDS011;19080;51.750;5.888;2022-10-31T16:30:40;29.92;;;19.08;;
32319;SDS011;19080;51.750;5.888;2022-10-31T16:33:24;38.78;;;20.95;;
32319;SDS011;19080;51.750;5.888;2022-10-31T16:35:51;28.83;;;18.85;;
32319;SDS011;19080;51.750;5.888;2022-10-31T16:38:29;31.60;;;20.05;;
32319;SDS011;19080;51.750;5.888;2022-10-31T16:40:55;36.58;;;20.50;;
32319;SDS011;19080;51.750;5.888;2022-10-31T16:43:22;27.08;;;17.25;;
32319;SDS011;19080;51.750;5.888;2022-10-31T16:45:50;33.30;;;18.10;;
32319;SDS011;19080;51.750;5.888;2022-10-31T16:48:18;29.65;;;18.58;;
32319;SDS011;19080;51.750;5.888;2022-10-31T16:50:45;35.75;;;18.45;;